»·PEaware :: N739HH KSNA-KAVX

N739HH :: KSNA-KAVX

FLIGHT INFORMATION

Flight Status: Arrived
Operator: Privately registered:
United States
More flights under this callsign
Pilot: Drew L. (13237)
Aircraft: CESSNA 172 SKYHAWK
(C172)
More flights by this aircraft type
Origin: KSNA John Wayne-Orange Co
United States
Destination: KAVX Catalina
United States
More flights between these airports :: More routes between these airports
Route: +SLI V21 SXC
File this flight plan on PilotEdge
Remarks: i7 Rating
Altitude:
(Current/Filed)
4,000ft
Speed:
(Current/Filed)
455kts
Departed: 16-Apr-18 12:15 PM
Arrived: 16-Apr-18 12:48 PM
Distance/Time
Traveled:
27nm/0:33
Distance/Time
To Go:
Arrived

Flight Plot

Page will automatically refresh every two minutes.


Map Options




Map Legend


Flown Route
Filed Route
Departure Airport
Arrival Airport
Navaid (VOR, NDB)
Fix

Horizontal Profiles

Position Reports

Time Latitude Longitude Heading Altitude Ground
Speed
16-Apr-18 11:48 33.674414 -117.872010 292 60ft 0kts
16-Apr-18 11:49 33.674414 -117.872010 292 60ft 0kts
16-Apr-18 11:50 33.674414 -117.872010 292 60ft 0kts
16-Apr-18 11:51 33.674414 -117.872010 292 60ft 0kts
16-Apr-18 11:52 33.674414 -117.872010 292 60ft 0kts
16-Apr-18 11:53 33.674414 -117.872010 292 60ft 0kts
16-Apr-18 11:54 33.674414 -117.872010 292 60ft 0kts
16-Apr-18 11:55 33.674414 -117.872010 292 60ft 0kts
16-Apr-18 11:56 33.674414 -117.872010 292 60ft 0kts
16-Apr-18 11:57 33.674414 -117.872010 292 60ft 0kts
16-Apr-18 11:58 33.674414 -117.872010 292 60ft 0kts
16-Apr-18 11:59 33.674414 -117.872010 292 60ft 0kts
16-Apr-18 12:00 33.674414 -117.872010 292 60ft 0kts
16-Apr-18 12:01 33.674414 -117.872010 292 60ft 0kts
16-Apr-18 12:02 33.674414 -117.872010 292 60ft 0kts
16-Apr-18 12:03 33.674414 -117.872010 292 60ft 0kts
16-Apr-18 12:04 33.674414 -117.872010 292 60ft 0kts
16-Apr-18 12:05 33.674414 -117.872010 292 60ft 0kts
16-Apr-18 12:06 33.674414 -117.872010 292 60ft 0kts
16-Apr-18 12:07 33.674366 -117.871954 73 60ft 0kts
16-Apr-18 12:08 33.674366 -117.871954 73 60ft 0kts
16-Apr-18 12:09 33.674366 -117.871954 73 60ft 0kts
16-Apr-18 12:10 33.674383 -117.871805 86 60ft 0kts
16-Apr-18 12:11 33.674389 -117.871649 84 60ft 0kts
16-Apr-18 12:12 33.674389 -117.871648 84 60ft 0kts
16-Apr-18 12:13 33.674388 -117.871364 94 60ft 7kts
16-Apr-18 12:14 33.672339 -117.870966 207 60ft 55kts
16-Apr-18 12:15 33.654602 -117.885422 230 978ft 83kts
16-Apr-18 12:16 33.639239 -117.906987 230 1949ft 89kts
16-Apr-18 12:17 33.621395 -117.931837 231 2271ft 93kts
16-Apr-18 12:18 33.604738 -117.952875 230 3266ft 81kts
16-Apr-18 12:19 33.588939 -117.970942 231 3994ft 90kts
16-Apr-18 12:20 33.569862 -117.993963 231 3995ft 100kts
16-Apr-18 12:21 33.550145 -118.018013 231 3995ft 101kts
16-Apr-18 12:22 33.530295 -118.042135 231 3995ft 102kts
16-Apr-18 12:23 33.510171 -118.066410 231 3995ft 103kts
16-Apr-18 12:24 33.489598 -118.091081 231 3996ft 106kts
16-Apr-18 12:25 33.472053 -118.112027 231 3996ft 107kts
16-Apr-18 12:26 33.450813 -118.137858 232 4000ft 109kts
16-Apr-18 12:27 33.429513 -118.163940 232 4006ft 108kts
16-Apr-18 12:28 33.408843 -118.188477 232 4009ft 102kts
16-Apr-18 12:29 33.394638 -118.214395 267 4011ft 90kts
16-Apr-18 12:30 33.391951 -118.241554 264 4012ft 77kts
16-Apr-18 12:31 33.389664 -118.266248 265 4014ft 73kts
16-Apr-18 12:32 33.387434 -118.290110 264 4015ft 71kts
16-Apr-18 12:33 33.384611 -118.313415 260 4016ft 70kts
16-Apr-18 12:34 33.380387 -118.336059 256 4016ft 69kts
16-Apr-18 12:35 33.379858 -118.359109 266 4016ft 69kts
16-Apr-18 12:36 33.378378 -118.382179 263 4016ft 70kts
16-Apr-18 12:37 33.376389 -118.405569 271 4014ft 71kts
16-Apr-18 12:38 33.398388 -118.407580 358 4016ft 97kts
16-Apr-18 12:39 33.426277 -118.401623 358 3550ft 115kts
16-Apr-18 12:40 33.455670 -118.396478 357 3209ft 94kts
16-Apr-18 12:41 33.474816 -118.407112 277 3199ft 67kts
16-Apr-18 12:42 33.459113 -118.404913 154 3202ft 91kts
16-Apr-18 12:43 33.437387 -118.403105 203 3197ft 75kts
16-Apr-18 12:44 33.416596 -118.404986 139 3040ft 95kts
16-Apr-18 12:45 33.415537 -118.396486 253 2249ft 64kts
16-Apr-18 12:46 33.407108 -118.412134 236 1614ft 51kts
16-Apr-18 12:47 33.403502 -118.415355 232 1606ft 7kts
16-Apr-18 12:48 33.403419 -118.415507 244 1606ft 0kts
16-Apr-18 12:49 33.403419 -118.415507 245 1606ft 0kts
16-Apr-18 12:50 33.403419 -118.415507 245 1606ft 0kts
16-Apr-18 12:51 33.403471 -118.416358 291 1606ft 19kts
16-Apr-18 12:52 33.407088 -118.411515 60 1606ft 18kts
16-Apr-18 12:53 33.400938 -118.422193 238 2125ft 64kts
16-Apr-18 12:54 33.414624 -118.429537 29 2934ft 107kts
16-Apr-18 12:55 33.438067 -118.405641 32 3217ft 121kts
16-Apr-18 12:56 33.467183 -118.387148 3 3203ft 119kts
16-Apr-18 12:57 33.495281 -118.393722 318 3187ft 105kts
16-Apr-18 12:58 33.520285 -118.412742 318 3178ft 106kts
16-Apr-18 12:59 33.545367 -118.431691 318 3172ft 107kts
16-Apr-18 13:00 33.569013 -118.421956 93 3156ft 122kts
16-Apr-18 13:01 33.550365 -118.395431 185 3153ft 93kts

Navigation Log

Ident Type
1. KSNA Airport
2. SLI Navaid
3. SXC Navaid
4. KAVX Airport